createdAt,value
2018-09-21T00:00:54.152Z,10.80
2018-09-21T00:03:21.924Z,10.40
2018-09-21T00:05:49.617Z,10.80
2018-09-21T00:08:17.299Z,10.25
2018-09-21T00:10:44.971Z,9.67
2018-09-21T00:13:12.645Z,9.23
2018-09-21T00:15:40.349Z,9.37
2018-09-21T00:18:08.050Z,9.73
2018-09-21T00:20:35.742Z,10.63
2018-09-21T00:23:03.463Z,9.00
2018-09-21T00:25:31.166Z,8.97
2018-09-21T00:27:58.798Z,9.73
2018-09-21T00:30:26.497Z,11.90
2018-09-21T00:32:54.193Z,10.40
2018-09-21T00:35:21.886Z,10.10
2018-09-21T00:37:49.704Z,9.43
2018-09-21T00:40:17.459Z,10.17
2018-09-21T00:42:45.166Z,12.80
2018-09-21T00:45:12.814Z,10.82
2018-09-21T00:47:40.520Z,12.33
2018-09-21T00:50:08.180Z,12.73
2018-09-21T00:52:35.827Z,9.60
2018-09-21T00:55:03.579Z,8.03
2018-09-21T00:57:31.304Z,11.20
2018-09-21T00:59:59.117Z,9.40
2018-09-21T01:02:26.921Z,8.63
2018-09-21T01:04:54.549Z,9.88
2018-09-21T01:07:22.231Z,11.70
2018-09-21T01:09:50.056Z,9.00
2018-09-21T01:12:17.703Z,16.63
2018-09-21T01:14:45.305Z,14.33
2018-09-21T01:17:12.942Z,11.38
2018-09-21T01:19:40.652Z,17.02
2018-09-21T01:22:08.245Z,8.53
2018-09-21T01:24:36.010Z,9.17
2018-09-21T01:27:03.654Z,10.33
2018-09-21T01:29:31.367Z,10.23
2018-09-21T01:31:59.050Z,10.03
2018-09-21T01:34:26.918Z,19.00
2018-09-21T01:36:54.592Z,9.65
2018-09-21T01:39:22.216Z,8.45
2018-09-21T01:41:49.812Z,17.50
2018-09-21T01:44:17.486Z,9.53
2018-09-21T01:46:45.102Z,14.80
2018-09-21T01:49:12.744Z,13.78
2018-09-21T01:51:40.358Z,8.20
2018-09-21T01:54:08.011Z,9.13
2018-09-21T01:56:35.660Z,9.80
2018-09-21T01:59:03.369Z,8.15
2018-09-21T02:01:31.020Z,12.60
2018-09-21T02:03:58.654Z,15.15
2018-09-21T02:06:26.319Z,9.38
2018-09-21T02:08:54.013Z,9.13
2018-09-21T02:11:21.682Z,9.00
2018-09-21T02:13:49.359Z,10.50
2018-09-21T02:16:16.940Z,10.60
2018-09-21T02:18:44.558Z,11.95
2018-09-21T02:21:12.261Z,12.90
2018-09-21T02:23:39.971Z,10.60
2018-09-21T02:26:07.627Z,9.10
2018-09-21T02:28:35.251Z,12.03
2018-09-21T02:31:02.908Z,13.33
2018-09-21T02:33:30.704Z,9.80
2018-09-21T02:35:58.407Z,18.37
2018-09-21T02:38:26.046Z,18.15
2018-09-21T02:40:53.626Z,10.17
2018-09-21T02:43:21.254Z,14.50
2018-09-21T02:45:48.882Z,14.90
2018-09-21T02:48:16.656Z,10.68
2018-09-21T02:50:44.316Z,15.20
2018-09-21T02:53:12.000Z,11.20
2018-09-21T02:55:39.575Z,9.13
2018-09-21T02:58:07.295Z,14.87
2018-09-21T03:00:34.999Z,14.00
2018-09-21T03:03:02.719Z,12.80
2018-09-21T03:05:30.382Z,12.68
2018-09-21T03:07:58.097Z,13.83
2018-09-21T03:10:25.790Z,10.57
2018-09-21T03:12:53.439Z,11.73
2018-09-21T03:15:21.141Z,13.17
2018-09-21T03:17:49.082Z,11.63
2018-09-21T03:20:16.741Z,20.93
2018-09-21T03:22:44.427Z,10.95
2018-09-21T03:25:12.078Z,16.73
2018-09-21T03:27:39.774Z,17.93
2018-09-21T03:30:07.382Z,12.40
2018-09-21T03:32:35.021Z,11.75
2018-09-21T03:35:02.722Z,12.40
2018-09-21T03:37:30.562Z,12.90
2018-09-21T03:39:58.301Z,9.38
2018-09-21T03:42:26.056Z,14.68
2018-09-21T03:44:53.681Z,11.28
2018-09-21T03:47:21.623Z,11.57
2018-09-21T03:49:49.349Z,11.13
2018-09-21T03:52:16.973Z,12.63
2018-09-21T03:54:44.551Z,17.70
2018-09-21T03:57:12.233Z,12.75
2018-09-21T03:59:39.907Z,18.27
2018-09-21T04:02:07.589Z,10.10
2018-09-21T04:04:35.338Z,14.10
2018-09-21T04:07:03.018Z,11.37
2018-09-21T04:09:30.372Z,14.13
2018-09-21T04:11:58.014Z,10.50
2018-09-21T04:14:25.672Z,14.63
2018-09-21T04:16:53.330Z,10.78
2018-09-21T04:19:20.945Z,12.87
2018-09-21T04:21:48.687Z,13.80
2018-09-21T04:24:16.402Z,21.03
2018-09-21T04:26:44.083Z,14.18
2018-09-21T04:29:11.709Z,10.93
2018-09-21T04:31:39.355Z,16.17
2018-09-21T04:34:07.167Z,16.30
2018-09-21T04:36:34.797Z,14.50
2018-09-21T04:39:03.240Z,19.42
2018-09-21T04:41:30.913Z,14.60
2018-09-21T04:43:58.567Z,10.77
2018-09-21T04:46:26.211Z,17.92
2018-09-21T04:48:53.913Z,11.33
2018-09-21T04:51:21.663Z,15.60
2018-09-21T04:53:49.377Z,20.97
2018-09-21T04:56:17.130Z,17.97
2018-09-21T04:58:44.801Z,11.70
2018-09-21T05:01:12.554Z,12.60
2018-09-21T05:03:40.243Z,14.80
2018-09-21T05:06:07.978Z,10.87
2018-09-21T05:08:35.723Z,14.67
2018-09-21T05:11:03.508Z,10.90
2018-09-21T05:13:31.289Z,14.53
2018-09-21T05:15:58.976Z,13.15
2018-09-21T05:18:26.709Z,13.17
2018-09-21T05:20:54.551Z,9.80
2018-09-21T05:23:22.290Z,16.67
2018-09-21T05:25:49.976Z,12.33
2018-09-21T05:28:17.670Z,13.53
2018-09-21T05:30:45.402Z,20.60
2018-09-21T05:33:13.115Z,10.53
2018-09-21T05:35:40.798Z,11.90
2018-09-21T05:38:08.424Z,13.80
2018-09-21T05:40:36.062Z,10.88
2018-09-21T05:43:03.716Z,14.87
2018-09-21T05:45:31.534Z,16.03
2018-09-21T05:47:59.266Z,13.40
2018-09-21T05:50:26.954Z,18.70
2018-09-21T05:52:54.654Z,21.97
2018-09-21T05:57:56.658Z,16.90
2018-09-21T06:00:24.363Z,16.30
2018-09-21T06:02:52.103Z,20.15
2018-09-21T06:05:19.792Z,12.33
2018-09-21T06:07:47.601Z,12.67
2018-09-21T06:10:15.287Z,19.67
2018-09-21T06:12:43.018Z,15.10
2018-09-21T06:15:10.704Z,17.80
2018-09-21T06:17:38.390Z,20.68
2018-09-21T06:20:12.107Z,14.83
2018-09-21T06:22:44.849Z,11.83
2018-09-21T06:25:02.418Z,13.73
2018-09-21T06:27:30.075Z,9.50
2018-09-21T06:29:57.726Z,12.90
2018-09-21T06:32:25.489Z,10.20
2018-09-21T06:34:53.234Z,19.67
2018-09-21T06:37:21.013Z,11.50
2018-09-21T06:39:50.178Z,17.13
2018-09-21T06:42:33.138Z,11.25
2018-09-21T06:45:01.512Z,9.67
2018-09-21T06:47:30.260Z,10.80
2018-09-21T06:49:57.989Z,13.70
2018-09-21T06:52:25.644Z,12.05
2018-09-21T06:54:53.337Z,14.10
2018-09-21T06:57:21.077Z,12.77
2018-09-21T06:59:48.784Z,8.50
2018-09-21T07:02:16.454Z,13.73
2018-09-21T07:04:44.108Z,16.20
2018-09-21T07:07:11.777Z,12.65
2018-09-21T07:09:39.462Z,20.08
2018-09-21T07:12:07.172Z,10.50
2018-09-21T07:14:34.826Z,8.40
2018-09-21T07:17:02.466Z,14.13
2018-09-21T07:19:30.125Z,11.60
2018-09-21T07:21:57.781Z,9.80
2018-09-21T07:24:32.238Z,10.95
2018-09-21T07:26:59.908Z,8.70
2018-09-21T07:29:27.668Z,14.73
2018-09-21T07:31:55.298Z,13.70
2018-09-21T07:34:23.062Z,17.13
2018-09-21T07:36:50.932Z,8.80
2018-09-21T07:39:18.741Z,12.13
2018-09-21T07:41:46.382Z,15.60
2018-09-21T07:44:14.028Z,17.07
2018-09-21T07:46:41.811Z,11.07
2018-09-21T07:49:09.571Z,15.10
2018-09-21T07:51:37.270Z,15.63
2018-09-21T07:54:04.948Z,8.03
2018-09-21T07:56:32.702Z,10.03
2018-09-21T07:59:00.420Z,6.97
2018-09-21T08:01:28.232Z,12.90
2018-09-21T08:03:55.882Z,16.00
2018-09-21T08:06:23.621Z,12.00
2018-09-21T08:08:51.266Z,10.60
2018-09-21T08:11:18.990Z,10.53
2018-09-21T08:13:46.802Z,9.40
2018-09-21T08:16:14.630Z,12.15
2018-09-21T08:18:42.687Z,8.83
2018-09-21T08:21:10.539Z,7.85
2018-09-21T08:23:38.325Z,10.13
2018-09-21T08:26:06.041Z,6.90
2018-09-21T08:28:33.801Z,10.30
2018-09-21T08:31:01.604Z,13.07
2018-09-21T08:33:29.385Z,14.30
2018-09-21T08:35:57.179Z,8.37
2018-09-21T08:38:24.951Z,8.20
2018-09-21T08:40:52.704Z,15.10
2018-09-21T08:43:20.447Z,4.70
2018-09-21T08:45:48.265Z,2.87
2018-09-21T08:48:16.055Z,3.42
2018-09-21T08:50:43.817Z,5.55
2018-09-21T08:53:11.564Z,4.70
2018-09-21T08:55:39.243Z,3.47
2018-09-21T08:58:07.111Z,4.03
2018-09-21T09:00:34.905Z,9.10
2018-09-21T09:03:02.754Z,3.33
2018-09-21T09:05:30.363Z,2.90
2018-09-21T09:07:58.501Z,5.22
2018-09-21T09:10:26.179Z,7.47
2018-09-21T09:12:53.951Z,4.73
2018-09-21T09:15:21.637Z,3.20
2018-09-21T09:17:49.419Z,6.47
2018-09-21T09:20:17.152Z,3.03
2018-09-21T09:22:44.842Z,6.93
2018-09-21T09:25:12.543Z,5.00
2018-09-21T09:27:40.218Z,4.93
2018-09-21T09:30:08.033Z,6.93
2018-09-21T09:32:35.721Z,5.50
2018-09-21T09:35:03.366Z,6.78
2018-09-21T09:37:30.943Z,3.93
2018-09-21T09:39:58.613Z,8.17
2018-09-21T09:42:26.362Z,6.23
2018-09-21T09:44:54.076Z,5.95
2018-09-21T09:47:21.799Z,6.10
2018-09-21T09:49:49.414Z,4.60
2018-09-21T09:52:17.043Z,5.70
2018-09-21T09:54:44.814Z,5.20
2018-09-21T09:57:12.399Z,4.20
2018-09-21T09:59:40.046Z,5.53
2018-09-21T10:02:07.674Z,6.42
2018-09-21T10:04:35.490Z,4.65
2018-09-21T10:07:03.173Z,4.90
2018-09-21T10:09:30.887Z,4.50
2018-09-21T10:11:58.617Z,3.90
2018-09-21T10:14:26.261Z,6.83
2018-09-21T10:16:53.927Z,3.85
2018-09-21T10:19:21.545Z,4.20
2018-09-21T10:21:49.201Z,3.90
2018-09-21T10:24:16.847Z,4.10
2018-09-21T10:26:44.496Z,4.07
2018-09-21T10:29:12.111Z,6.93
2018-09-21T10:31:39.825Z,4.43
2018-09-21T10:34:07.595Z,5.12
2018-09-21T10:36:35.233Z,3.98
2018-09-21T10:39:04.610Z,4.93
2018-09-21T10:41:32.172Z,8.40
2018-09-21T10:43:59.794Z,4.55
2018-09-21T10:46:27.430Z,4.00
2018-09-21T10:48:55.094Z,5.17
2018-09-21T10:51:22.926Z,5.57
2018-09-21T10:53:50.616Z,7.23
2018-09-21T10:56:18.552Z,6.90
2018-09-21T10:58:46.394Z,6.47
2018-09-21T11:01:13.981Z,10.53
2018-09-21T11:03:41.742Z,5.25
2018-09-21T11:06:09.428Z,4.67
2018-09-21T11:08:37.137Z,5.33
2018-09-21T11:11:04.884Z,4.63
2018-09-21T11:13:32.554Z,5.70
2018-09-21T11:16:00.364Z,8.30
2018-09-21T11:18:28.125Z,7.93
2018-09-21T11:20:55.793Z,9.00
2018-09-21T11:23:23.441Z,6.80
2018-09-21T11:25:51.147Z,8.07
2018-09-21T11:28:18.913Z,14.95
2018-09-21T11:30:46.599Z,6.97
2018-09-21T11:33:14.362Z,13.97
2018-09-21T11:35:42.151Z,10.20
2018-09-21T11:38:09.796Z,11.83
2018-09-21T11:40:37.598Z,11.13
2018-09-21T11:43:05.426Z,5.40
2018-09-21T11:45:33.137Z,5.25
2018-09-21T11:48:00.975Z,5.50
2018-09-21T11:50:28.661Z,6.92
2018-09-21T11:52:56.599Z,6.90
2018-09-21T11:55:24.631Z,6.30
2018-09-21T11:57:52.330Z,7.67
2018-09-21T12:00:20.017Z,7.27
2018-09-21T12:02:47.860Z,8.33
2018-09-21T12:05:15.519Z,7.13
2018-09-21T12:07:43.175Z,5.80
2018-09-21T12:10:10.944Z,8.60
2018-09-21T12:12:38.623Z,5.20
2018-09-21T12:15:06.669Z,6.20
2018-09-21T12:17:34.397Z,8.10
2018-09-21T12:20:02.170Z,7.43
2018-09-21T12:22:29.914Z,5.92
2018-09-21T12:24:57.641Z,7.72
2018-09-21T12:27:25.332Z,12.47
2018-09-21T12:29:53.366Z,6.03
2018-09-21T12:32:20.987Z,9.10
2018-09-21T12:34:48.891Z,12.07
2018-09-21T12:37:16.559Z,5.37
2018-09-21T12:39:44.296Z,6.43
2018-09-21T12:42:12.122Z,10.80
2018-09-21T12:44:39.840Z,4.30
2018-09-21T12:47:07.500Z,6.53
2018-09-21T12:49:37.037Z,8.03
2018-09-21T12:52:04.676Z,11.70
2018-09-21T12:54:32.345Z,6.35
2018-09-21T12:57:00.047Z,6.78
2018-09-21T12:59:27.914Z,9.37
2018-09-21T13:01:55.539Z,10.23
2018-09-21T13:04:23.238Z,8.93
2018-09-21T13:06:51.164Z,7.00
2018-09-21T13:09:18.769Z,7.63
2018-09-21T13:11:46.384Z,5.35
2018-09-21T13:14:14.020Z,8.15
2018-09-21T13:16:41.671Z,17.43
2018-09-21T13:19:09.506Z,7.13
2018-09-21T13:21:37.235Z,5.93
2018-09-21T13:24:04.931Z,5.77
2018-09-21T13:26:32.861Z,4.42
2018-09-21T13:29:00.459Z,3.20
2018-09-21T13:31:28.137Z,5.75
2018-09-21T13:33:55.845Z,4.25
2018-09-21T13:36:23.505Z,7.90
2018-09-21T13:38:51.401Z,5.53
2018-09-21T13:41:19.071Z,10.53
2018-09-21T13:43:46.709Z,7.00
2018-09-21T13:46:14.420Z,7.92
2018-09-21T13:48:42.051Z,5.83
2018-09-21T13:51:10.019Z,11.23
2018-09-21T13:53:37.638Z,10.43
2018-09-21T13:56:05.347Z,8.27
2018-09-21T13:58:33.036Z,12.23
2018-09-21T14:01:00.770Z,4.00
2018-09-21T14:03:28.540Z,4.25
2018-09-21T14:06:00.175Z,11.10
2018-09-21T14:08:27.831Z,7.33
2018-09-21T14:10:55.501Z,9.80
2018-09-21T14:13:23.107Z,12.10
2018-09-21T14:15:50.781Z,8.37
2018-09-21T14:18:20.163Z,12.53
2018-09-21T14:20:47.819Z,5.60
2018-09-21T14:23:16.887Z,8.95
2018-09-21T14:25:45.921Z,6.70
2018-09-21T14:28:15.750Z,7.73
2018-09-21T14:30:45.270Z,9.70
2018-09-21T14:33:14.443Z,10.40
2018-09-21T14:35:44.187Z,6.90
2018-09-21T14:38:13.338Z,5.00
2018-09-21T14:40:42.493Z,6.90
2018-09-21T14:43:10.229Z,5.20
2018-09-21T14:45:38.717Z,5.67
2018-09-21T14:48:06.368Z,5.70
2018-09-21T14:50:39.971Z,7.92
2018-09-21T14:53:07.673Z,7.50
2018-09-21T14:55:35.338Z,6.83
2018-09-21T14:58:03.114Z,6.65
2018-09-21T15:00:30.769Z,9.23
2018-09-21T15:02:58.485Z,7.83
2018-09-21T15:05:26.307Z,5.77
2018-09-21T15:07:54.018Z,4.93
2018-09-21T15:10:21.709Z,7.57
2018-09-21T15:12:49.443Z,7.20
2018-09-21T15:15:17.111Z,9.48
2018-09-21T15:17:44.777Z,5.17
2018-09-21T15:20:12.469Z,5.80
2018-09-21T15:22:40.487Z,7.47
2018-09-21T15:25:08.161Z,9.07
2018-09-21T15:27:35.841Z,5.10
2018-09-21T15:30:03.833Z,4.90
2018-09-21T15:32:31.503Z,6.53
2018-09-21T15:34:59.358Z,6.00
2018-09-21T15:37:29.131Z,13.23
2018-09-21T15:39:56.810Z,35.97
2018-09-21T15:42:24.493Z,6.33
2018-09-21T15:44:52.287Z,11.60
2018-09-21T15:47:20.185Z,16.67
2018-09-21T15:49:47.895Z,15.13
2018-09-21T15:52:15.625Z,17.10
2018-09-21T15:54:43.476Z,7.30
2018-09-21T15:57:11.223Z,6.50
2018-09-21T15:59:38.944Z,5.60
2018-09-21T16:02:06.708Z,5.53
2018-09-21T16:04:34.416Z,9.50
2018-09-21T16:07:02.145Z,3.00
2018-09-21T16:09:29.899Z,5.97
2018-09-21T16:11:57.680Z,6.40
2018-09-21T16:14:25.363Z,6.43
2018-09-21T16:16:53.058Z,7.40
2018-09-21T16:19:20.756Z,6.20
2018-09-21T16:21:48.600Z,6.07
2018-09-21T16:24:16.299Z,8.10
2018-09-21T16:26:43.990Z,7.45
2018-09-21T16:29:11.642Z,5.40
2018-09-21T16:31:39.279Z,10.23
2018-09-21T16:34:07.039Z,13.13
2018-09-21T16:36:34.726Z,63.50
2018-09-21T16:39:02.545Z,146.20
2018-09-21T16:41:30.241Z,92.90
2018-09-21T16:43:58.071Z,101.60
2018-09-21T16:46:25.771Z,76.50
2018-09-21T16:48:53.534Z,88.00
2018-09-21T16:51:21.258Z,76.02
2018-09-21T16:53:49.268Z,79.82
2018-09-21T16:56:17.028Z,62.15
2018-09-21T16:58:44.820Z,53.83
2018-09-21T17:01:12.408Z,37.50
2018-09-21T17:03:40.107Z,38.80
2018-09-21T17:06:07.804Z,29.23
2018-09-21T17:08:35.533Z,9.53
2018-09-21T17:11:03.236Z,13.68
2018-09-21T17:13:30.922Z,8.40
2018-09-21T17:15:59.066Z,14.37
2018-09-21T17:18:26.722Z,18.37
2018-09-21T17:20:54.379Z,9.30
2018-09-21T17:23:21.996Z,10.85
2018-09-21T17:25:49.731Z,15.20
2018-09-21T17:28:17.456Z,9.40
2018-09-21T17:30:45.108Z,7.63
2018-09-21T17:33:12.912Z,6.13
2018-09-21T17:38:15.053Z,4.60
2018-09-21T17:40:42.769Z,5.97
2018-09-21T17:43:10.523Z,4.62
2018-09-21T17:45:38.268Z,1.85
2018-09-21T17:48:06.309Z,5.90
2018-09-21T17:50:34.022Z,11.70
2018-09-21T17:53:01.719Z,4.50
2018-09-21T17:55:29.432Z,7.13
2018-09-21T17:57:57.132Z,13.40
2018-09-21T18:00:24.854Z,2.67
2018-09-21T18:02:52.503Z,6.63
2018-09-21T18:05:20.164Z,7.80
2018-09-21T18:07:47.964Z,3.00
2018-09-21T18:10:15.802Z,5.67
2018-09-21T18:12:43.557Z,5.57
2018-09-21T18:15:11.490Z,10.23
2018-09-21T18:17:39.164Z,8.43
2018-09-21T18:20:07.144Z,5.53
2018-09-21T18:22:34.890Z,3.07
2018-09-21T18:25:02.620Z,8.37
2018-09-21T18:27:30.343Z,3.60
2018-09-21T18:29:58.067Z,6.70
2018-09-21T18:32:25.827Z,7.33
2018-09-21T18:34:53.706Z,8.37
2018-09-21T18:37:21.452Z,5.90
2018-09-21T18:39:49.324Z,2.40
2018-09-21T18:45:07.677Z,8.10
2018-09-21T18:47:35.521Z,4.83
2018-09-21T18:50:03.432Z,9.70
2018-09-21T18:52:31.285Z,3.10
2018-09-21T18:54:59.170Z,7.00
2018-09-21T18:57:27.054Z,3.60
2018-09-21T18:59:55.073Z,4.20
2018-09-21T19:02:22.916Z,3.63
2018-09-21T19:04:50.974Z,4.13
2018-09-21T19:07:24.879Z,4.23
2018-09-21T19:09:52.920Z,4.10
2018-09-21T19:12:20.842Z,4.30
2018-09-21T19:14:48.697Z,2.87
2018-09-21T19:17:16.407Z,4.30
2018-09-21T19:19:44.268Z,4.07
2018-09-21T19:22:12.044Z,4.53
2018-09-21T19:24:40.385Z,3.98
2018-09-21T19:27:08.251Z,6.37
2018-09-21T19:29:36.507Z,4.83
2018-09-21T19:32:04.815Z,6.73
2018-09-21T19:34:32.754Z,5.03
2018-09-21T19:37:00.960Z,5.50
2018-09-21T19:39:29.845Z,5.57
2018-09-21T19:41:57.751Z,6.63
2018-09-21T19:44:25.784Z,5.57
2018-09-21T19:46:53.686Z,6.37
2018-09-21T19:49:21.673Z,5.30
2018-09-21T19:51:49.584Z,6.63
2018-09-21T19:54:17.649Z,3.87
2018-09-21T19:56:45.584Z,6.57
2018-09-21T19:59:13.493Z,5.13
2018-09-21T20:01:41.350Z,4.80
2018-09-21T20:04:09.353Z,6.87
2018-09-21T20:06:37.414Z,6.33
2018-09-21T20:09:08.231Z,9.77
2018-09-21T20:11:36.192Z,6.17
2018-09-21T20:14:03.998Z,4.27
2018-09-21T20:16:31.920Z,5.10
2018-09-21T20:19:01.058Z,6.53
2018-09-21T20:21:32.412Z,4.00
2018-09-21T20:24:13.178Z,5.13
2018-09-21T20:26:41.418Z,7.57
2018-09-21T20:29:10.025Z,8.93
2018-09-21T20:31:43.817Z,5.43
2018-09-21T20:34:11.784Z,6.50
2018-09-21T20:36:39.747Z,9.93
2018-09-21T20:39:08.388Z,5.57
2018-09-21T20:41:36.229Z,4.60
2018-09-21T20:44:04.172Z,6.10
2018-09-21T20:46:33.079Z,5.93
2018-09-21T20:49:00.918Z,9.60
2018-09-21T20:51:28.691Z,4.47
2018-09-21T20:53:56.505Z,7.23
2018-09-21T20:56:24.334Z,7.43
2018-09-21T20:58:52.063Z,6.00
2018-09-21T21:01:19.745Z,5.42
2018-09-21T21:03:47.503Z,10.28
2018-09-21T21:06:15.147Z,4.47
2018-09-21T21:08:42.816Z,9.60
2018-09-21T21:11:10.438Z,9.20
2018-09-21T21:13:38.486Z,7.85
2018-09-21T21:16:06.626Z,6.37
2018-09-21T21:18:34.326Z,6.17
2018-09-21T21:21:01.952Z,8.90
2018-09-21T21:23:29.647Z,7.70
2018-09-21T21:25:57.335Z,9.73
2018-09-21T21:28:25.094Z,4.80
2018-09-21T21:30:52.750Z,7.53
2018-09-21T21:33:20.559Z,9.00
2018-09-21T21:35:49.789Z,8.53
2018-09-21T21:38:17.960Z,7.67
2018-09-21T21:40:46.754Z,11.00
2018-09-21T21:43:14.926Z,6.17
2018-09-21T21:45:42.667Z,11.53
2018-09-21T21:50:44.746Z,5.63
2018-09-21T21:53:12.475Z,5.43
2018-09-21T21:55:40.254Z,8.53
2018-09-21T21:58:08.141Z,7.12
2018-09-21T22:00:41.737Z,8.45
2018-09-21T22:03:09.611Z,6.70
2018-09-21T22:05:37.461Z,3.93
2018-09-21T22:08:05.532Z,5.67
2018-09-21T22:10:33.243Z,6.33
2018-09-21T22:13:06.786Z,8.67
2018-09-21T22:15:34.546Z,6.30
2018-09-21T22:18:02.269Z,7.90
2018-09-21T22:20:30.106Z,8.48
2018-09-21T22:22:57.809Z,4.78
2018-09-21T22:25:25.498Z,11.00
2018-09-21T22:27:53.209Z,6.77
2018-09-21T22:30:20.915Z,6.70
2018-09-21T22:32:48.657Z,7.20
2018-09-21T22:35:16.406Z,5.97
2018-09-21T22:37:44.105Z,13.20
2018-09-21T22:40:11.877Z,5.22
2018-09-21T22:42:39.596Z,8.48
2018-09-21T22:45:07.388Z,14.93
2018-09-21T22:47:35.121Z,10.47
2018-09-21T22:50:02.901Z,4.20
2018-09-21T22:52:30.807Z,8.27
2018-09-21T22:54:58.585Z,6.63
2018-09-21T22:57:26.285Z,7.10
2018-09-21T22:59:54.079Z,3.50
2018-09-21T23:02:21.812Z,5.80
2018-09-21T23:04:49.591Z,8.90
2018-09-21T23:07:17.388Z,9.20
2018-09-21T23:09:45.116Z,9.40
2018-09-21T23:12:12.839Z,8.30
2018-09-21T23:14:40.575Z,7.03
2018-09-21T23:17:08.323Z,3.50
2018-09-21T23:19:36.021Z,6.03
2018-09-21T23:22:03.736Z,7.00
2018-09-21T23:24:31.350Z,7.97
2018-09-21T23:26:59.086Z,4.10
2018-09-21T23:29:26.784Z,10.50
2018-09-21T23:31:54.641Z,8.10
2018-09-21T23:34:22.406Z,8.25
2018-09-21T23:36:50.124Z,3.02
2018-09-21T23:39:17.876Z,2.43
2018-09-21T23:41:45.566Z,7.97
2018-09-21T23:44:13.274Z,5.23
2018-09-21T23:46:40.944Z,6.50
2018-09-21T23:49:08.654Z,4.55
2018-09-21T23:51:36.334Z,5.77
2018-09-21T23:54:04.074Z,5.93
2018-09-21T23:56:31.974Z,6.97
2018-09-21T23:58:59.738Z,3.83
